EST,Max TemperatureF,Mean TemperatureF,Min TemperatureF,Max Dew PointF,MeanDew PointF,Min DewpointF,Max Humidity, Mean Humidity, Min Humidity, Max Sea Level PressureIn, Mean Sea Level PressureIn, Min Sea Level PressureIn, Max VisibilityMiles, Mean VisibilityMiles, Min VisibilityMiles, Max Wind SpeedMPH, Mean Wind SpeedMPH, Max Gust SpeedMPH,PrecipitationIn, CloudCover, Events, WindDirDegrees
2013-1-1,38,31,24,29,25,16,75,67,58,30.04,29.94,29.87,10,10,8,14,8,21,T,6,,283
2013-1-2,31,25,19,16,14,12,73,61,49,30.22,30.09,30.02,10,10,10,15,7,22,0.00,1,,282
2013-1-3,32,25,18,20,15,12,80,65,49,30.22,30.16,30.08,10,10,10,15,7,21,0.00,2,,252
2013-1-4,37,32,27,21,20,18,69,60,51,30.12,30.06,29.99,10,10,10,22,12,29,0.00,4,,262
2013-1-5,40,33,25,25,21,18,78,63,48,30.32,30.23,30.07,10,10,7,17,8,24,0.00,2,,271
2013-1-6,44,37,30,29,26,24,85,69,53,30.21,30.09,29.99,10,8,4,14,5,21,T,6,,239
2013-1-7,45,36,26,29,25,23,78,60,41,30.40,30.30,30.10,10,10,8,15,6,21,0.00,3,,265
2013-1-8,46,33,19,29,24,18,92,73,53,30.41,30.39,30.36,10,7,4,12,3,16,0.00,0,Rain,251
2013-1-9,42,32,22,35,27,19,100,88,76,30.39,30.30,30.18,10,4,2,12,3,14,T,2,Rain,244
2013-1-10,48,40,31,28,25,23,82,61,39,30.55,30.48,30.30,10,10,10,15,6,20,0.00,0,,304
2013-1-11,45,38,31,41,35,26,96,80,64,30.51,30.28,30.10,10,6,1,10,3,13,0.41,7,Rain,72
2013-1-12,48,44,40,45,42,39,100,93,86,30.17,30.14,30.09,6,1,0,6,1,8,0.00,8,Fog,9
2013-1-13,49,46,43,47,45,43,100,96,92,30.15,30.07,29.99,3,1,0,8,2,9,0.01,8,Fog,156
2013-1-14,55,47,39,50,42,29,100,75,49,30.29,30.11,29.93,10,6,0,14,5,20,0.06,8,Fog-Rain,319
2013-1-15,39,36,32,34,29,24,92,76,59,30.37,30.28,30.21,10,9,4,10,4,12,0.21,8,Rain-Snow,37
2013-1-16,34,33,31,33,31,30,100,95,89,30.19,30.01,29.86,5,2,1,10,5,12,0.56,7,Rain-Snow,34
2013-1-17,41,37,33,32,29,26,100,80,60,30.09,30.05,29.96,10,9,4,13,5,17,0.00,1,,281
2013-1-18,34,29,23,28,14,6,82,61,39,30.47,30.34,30.04,10,10,10,22,9,30,0.00,2,,285
2013-1-19,49,37,24,26,22,10,74,57,39,30.38,30.17,29.90,10,10,10,18,7,25,0.00,2,,218
2013-1-20,52,40,27,29,20,10,78,51,23,30.08,29.87,29.74,10,10,10,32,12,52,0.00,0,,262
2013-1-21,30,25,19,19,12,8,81,64,46,30.10,29.99,29.89,10,10,4,22,5,31,T,6,Snow,251
2013-1-22,23,17,11,3,-2,-7,54,44,33,30.25,30.09,29.89,10,10,10,24,15,36,0.00,2,,279
2013-1-23,19,14,8,5,-1,-5,76,58,39,30.28,30.23,30.17,10,10,10,17,7,24,T,2,,273
2013-1-24,24,16,8,6,2,-3,83,59,34,30.47,30.29,30.14,10,10,9,24,7,30,0.00,3,,320
2013-1-25,21,16,10,14,6,-2,88,65,41,30.46,30.27,30.08,10,7,1,15,3,22,0.05,5,Snow,256
2013-1-26,27,20,12,12,8,5,88,67,46,30.41,30.21,30.07,10,10,8,15,7,21,0.00,4,,300
2013-1-27,34,20,6,14,9,3,88,63,38,30.56,30.50,30.42,10,10,9,13,4,21,0.00,0,,282
2013-1-28,35,28,20,33,27,15,100,84,68,30.49,30.24,30.03,9,3,0,12,4,15,0.18,8,Fog-Rain-Snow,214
2013-1-29,50,43,35,44,38,33,100,90,80,30.14,30.08,30.01,6,3,2,8,3,16,0.01,8,Rain,58
2013-1-30,66,54,41,58,49,39,100,89,78,30.01,29.69,29.33,10,3,0,23,6,30,0.88,8,Fog-Rain,114
2013-1-31,57,42,26,55,36,9,100,69,38,29.82,29.38,29.08,10,6,1,35,16,49,1.63,6,Rain-Snow,270